Karmel — 9HA2896 — position and weather

sailwx.info

Track history (hours):
 
Tides and Currents Weather Stations Pressure Air Temp Water Temp Dewpoint Dewpoint Depression Visibility Wind Speed Wind Dir Waves Ship Positions

Karmel

Last reported at 2018-Jan-12 15:00 UTC. Time now 2018-Jan-18 02:21 UTC.
Position N 58°14' E 006°11'.

Length 90 m; draft 4.2 m.

Type: Ship. MMSI: 256632000.

Date/timePositionNaut miles runAvg speedWind from/ knotsBaromVisibWave heightAir tempDewpointWater temp
2018-Jan-12 15:00N 58°14' E 006°11'4 8.8
2018-Jan-12 14:30N 58°17' E 006°04'4 8.6
2018-Jan-12 14:00N 58°20' E 005°58'5 9.0
2018-Jan-12 13:30N 58°23' E 005°51'5 8.9
2018-Jan-12 12:59N 58°26' E 005°45'4 9.1
2018-Jan-12 12:30N 58°29' E 005°39'4 8.7
2018-Jan-12 12:00N 58°33' E 005°34'4 8.6
2018-Jan-12 11:30N 58°36' E 005°30'4 8.7
2018-Jan-12 11:00N 58°40' E 005°26'4 8.8
2018-Jan-12 10:30N 58°44' E 005°22'5 9.4
2018-Jan-12 10:00N 58°48' E 005°19'5 9.7
2018-Jan-12 09:30N 58°53' E 005°18'5 9.7
2018-Jan-12 09:00N 58°58' E 005°18'5 9.9
2018-Jan-12 08:30N 59°03' E 005°19'510.3
2018-Jan-12 08:00N 59°08' E 005°20'611.1
2018-Jan-12 07:30N 59°14' E 005°21'510.8
2018-Jan-12 07:00N 59°19' E 005°20'611.1
2018-Jan-12 06:30N 59°24' E 005°15'1 1.6
2018-Jan-12 05:59N 59°25' E 005°14'0 0.0
2018-Jan-12 05:29N 59°25' E 005°14'0 0.0
2018-Jan-12 04:59N 59°25' E 005°14'0 0.0
2018-Jan-12 04:29N 59°25' E 005°14'0 0.0
2018-Jan-12 03:59N 59°25' E 005°14'0 0.0
2018-Jan-12 03:29N 59°25' E 005°14'0 0.0
2018-Jan-12 02:59N 59°25' E 005°14'0 0.0
2018-Jan-12 02:29N 59°25' E 005°14'0 0.0
2018-Jan-12 01:59N 59°25' E 005°14'0 0.0
2018-Jan-12 01:29N 59°25' E 005°14'0 0.0
2018-Jan-12 00:59N 59°25' E 005°14'0 0.0
2018-Jan-12 00:29N 59°25' E 005°14'0 0.0
2018-Jan-11 23:59N 59°25' E 005°14'0 0.0
2018-Jan-11 23:29N 59°25' E 005°14'0 0.0
2018-Jan-11 22:59N 59°25' E 005°14'0 0.0
2018-Jan-11 22:29N 59°25' E 005°14'0 0.0
2018-Jan-11 21:59N 59°25' E 005°14'0 0.0
2018-Jan-11 21:29N 59°25' E 005°14'0 0.0
2018-Jan-11 20:59N 59°25' E 005°14'0 0.0
2018-Jan-11 20:29N 59°25' E 005°14'0 0.0
2018-Jan-11 19:59N 59°25' E 005°14'0 0.0
2018-Jan-11 19:29N 59°25' E 005°14'0 0.0
2018-Jan-11 18:59N 59°25' E 005°14'0 0.0
2018-Jan-11 18:29N 59°25' E 005°14'0 0.0
2018-Jan-11 17:59N 59°25' E 005°14'0 0.0
2018-Jan-11 17:29N 59°25' E 005°14'0 0.0
2018-Jan-11 16:59N 59°25' E 005°14'0 0.0
2018-Jan-11 16:29N 59°25' E 005°14'0 0.0
2018-Jan-11 15:59N 59°25' E 005°14'0 0.0
2018-Jan-11 15:29N 59°25' E 005°14'0 0.0
2018-Jan-11 14:59N 59°25' E 005°14'0 0.0
2018-Jan-11 14:29N 59°25' E 005°14'0 0.0
2018-Jan-11 13:56N 59°25' E 005°14'0 0.0
2018-Jan-11 13:29N 59°25' E 005°14'0 0.0
2018-Jan-11 12:59N 59°25' E 005°14'0 0.0
2018-Jan-11 12:30N 59°25' E 005°14'3 6.6
2018-Jan-11 12:00N 59°22' E 005°18'611.8
2018-Jan-11 11:30N 59°16' E 005°20'611.5
2018-Jan-11 11:01N 59°11' E 005°22'510.1
2018-Jan-11 10:30N 59°06' E 005°26'510.6
2018-Jan-11 10:00N 59°01' E 005°20'612.2
2018-Jan-11 09:31N 58°56' E 005°19'713.0
2018-Jan-11 09:01N 58°49' E 005°15'713.0
2018-Jan-11 08:30N 58°43' E 005°11'612.5
2018-Jan-11 08:01N 58°37' E 005°08'41511.1
2018-Jan-09 18:47N 51°47' E 003°18'511.9
2018-Jan-09 18:24N 51°42' E 003°18'510.7
2018-Jan-09 17:57N 51°38' E 003°21'510.9
2018-Jan-09 17:30N 51°34' E 003°25'5 9.9
2018-Jan-09 17:00N 51°29' E 003°29'4 9.1
2018-Jan-09 16:30N 51°26' E 003°34'4 8.2
2018-Jan-09 16:00N 51°25' E 003°40'510.2
2018-Jan-09 15:30N 51°21' E 003°47'2 4.6
2018-Jan-09 15:00N 51°20' E 003°49'0 0.9
2018-Jan-09 14:31N 51°19' E 003°49'0 0.3
2018-Jan-09 14:00N 51°19' E 003°50'3 5.9
2018-Jan-09 13:30N 51°16' E 003°50'4 8.8
2018-Jan-09 13:00N 51°12' E 003°48'4 9.0
2018-Jan-09 12:30N 51°08' E 003°46'2 4.8
2018-Jan-09 12:00N 51°05' E 003°45'0 0.0
2018-Jan-09 11:27N 51°05' E 003°45'0 0.0
2018-Jan-09 10:57N 51°05' E 003°45'0 0.0
2018-Jan-09 10:30N 51°05' E 003°45'0 0.0
2018-Jan-09 09:57N 51°05' E 003°45'0 0.0
2018-Jan-09 09:30N 51°05' E 003°45'0 0.0
2018-Jan-09 09:00N 51°05' E 003°45'0 0.0
2018-Jan-09 08:27N 51°05' E 003°45'0 0.0
2018-Jan-09 07:57N 51°05' E 003°45'0 0.0
2018-Jan-09 07:24N 51°05' E 003°45'0 0.0
2018-Jan-09 07:00N 51°05' E 003°45'0 0.0
2018-Jan-09 06:30N 51°05' E 003°45'0 0.0
2018-Jan-09 06:00N 51°05' E 003°45'0 0.0
2018-Jan-09 05:27N 51°05' E 003°45'0 0.0
2018-Jan-09 05:00N 51°05' E 003°45'0 0.0
2018-Jan-09 04:30N 51°05' E 003°45'0 0.0
2018-Jan-09 04:00N 51°05' E 003°45'0 0.0
2018-Jan-09 03:30N 51°05' E 003°45'0 0.0
2018-Jan-09 02:57N 51°05' E 003°45'0 0.0
2018-Jan-09 02:30N 51°05' E 003°45'0 0.0
2018-Jan-09 02:00N 51°05' E 003°45'0 0.0
2018-Jan-09 01:30N 51°05' E 003°45'0 0.0
2018-Jan-09 01:00N 51°05' E 003°45'0 0.0
2018-Jan-09 00:30N 51°05' E 003°45'0 0.0
2018-Jan-09 00:00N 51°05' E 003°45'0 0.0
2018-Jan-08 23:30N 51°05' E 003°45'0 0.0
2018-Jan-08 23:00N 51°05' E 003°45'0 0.0
2018-Jan-08 22:30N 51°05' E 003°45'0 0.0
2018-Jan-08 22:00N 51°05' E 003°45'0 0.0
2018-Jan-08 21:27N 51°05' E 003°45'0 0.0
2018-Jan-08 21:00N 51°05' E 003°45'0 0.0
2018-Jan-08 20:30N 51°05' E 003°45'0 0.0
2018-Jan-08 20:00N 51°05' E 003°45'0 0.0
2018-Jan-08 19:27N 51°05' E 003°45'0 0.0
2018-Jan-08 19:00N 51°05' E 003°45'0 0.0
2018-Jan-08 18:30N 51°05' E 003°45'0 0.0
2018-Jan-08 18:00N 51°05' E 003°45'0 0.0
2018-Jan-08 17:30N 51°05' E 003°45'0 0.0
2018-Jan-08 16:54N 51°05' E 003°45'0 0.0
2018-Jan-08 16:30N 51°05' E 003°45'0 0.0
2018-Jan-08 15:57N 51°05' E 003°45'0 0.0
2018-Jan-08 15:30N 51°05' E 003°45'0 0.0
2018-Jan-08 15:00N 51°05' E 003°45'0 0.0
2018-Jan-08 14:30N 51°05' E 003°45'0 0.0
2018-Jan-08 14:00N 51°05' E 003°45'0 0.0
2018-Jan-08 13:29N 51°05' E 003°45'0 0.0
2018-Jan-08 12:59N 51°05' E 003°45'0 0.0
2018-Jan-08 12:26N 51°05' E 003°45'0 0.0
2018-Jan-08 11:59N 51°05' E 003°45'0 0.0
2018-Jan-08 11:26N 51°05' E 003°45'0 0.0
2018-Jan-08 10:59N 51°05' E 003°45'0 0.0
2018-Jan-08 10:26N 51°05' E 003°45'0 0.0
2018-Jan-08 09:59N 51°05' E 003°45'0 0.0
2018-Jan-08 09:29N 51°05' E 003°45'0 0.0
2018-Jan-08 08:50N 51°05' E 003°45'0 0.0
2018-Jan-08 08:26N 51°05' E 003°45'0 0.0
2018-Jan-08 07:59N 51°05' E 003°45'0 0.0
2018-Jan-08 07:29N 51°05' E 003°45'0 0.0
2018-Jan-08 06:59N 51°05' E 003°45'0 0.0
2018-Jan-08 06:29N 51°05' E 003°45'0 0.0
2018-Jan-08 05:50N 51°05' E 003°45'0 0.0
2018-Jan-08 05:29N 51°05' E 003°45'0 0.0
2018-Jan-08 04:59N 51°05' E 003°45'0 0.0
2018-Jan-08 04:23N 51°05' E 003°45'0 0.0
2018-Jan-08 03:56N 51°05' E 003°45'0 0.0
2018-Jan-08 03:29N 51°05' E 003°45'0 0.0
2018-Jan-08 02:59N 51°05' E 003°45'0 0.0
2018-Jan-08 02:29N 51°05' E 003°45'0 0.0
2018-Jan-08 01:59N 51°05' E 003°45'0 0.0
2018-Jan-08 01:29N 51°05' E 003°45'0 0.0
2018-Jan-08 00:59N 51°05' E 003°45'0 0.0
2018-Jan-08 00:29N 51°05' E 003°45'0 0.0
2018-Jan-07 23:56N 51°05' E 003°45'0 0.0
2018-Jan-07 23:29N 51°05' E 003°45'0 0.0
2018-Jan-07 22:56N 51°05' E 003°45'0 0.0
2018-Jan-07 22:29N 51°05' E 003°45'0 0.0
2018-Jan-07 21:59N 51°05' E 003°45'0 0.0
2018-Jan-07 21:26N 51°05' E 003°45'0 0.0
2018-Jan-07 20:59N 51°05' E 003°45'0 0.0
2018-Jan-07 20:29N 51°05' E 003°45'0 0.0
2018-Jan-07 19:59N 51°05' E 003°45'0 0.0
2018-Jan-07 19:29N 51°05' E 003°45'0 0.0
2018-Jan-07 18:59N 51°05' E 003°45'0 0.0
2018-Jan-07 18:29N 51°05' E 003°45'0 0.0
2018-Jan-07 17:56N 51°05' E 003°45'0 0.0
2018-Jan-07 17:29N 51°05' E 003°45'0 0.0
2018-Jan-07 16:59N 51°05' E 003°45'0 0.0
2018-Jan-07 16:26N 51°05' E 003°45'0 0.0
2018-Jan-07 15:59N 51°05' E 003°45'0 0.0
2018-Jan-07 15:29N 51°05' E 003°45'0 0.0
2018-Jan-07 14:59N 51°05' E 003°45'0 0.0
2018-Jan-07 14:29N 51°05' E 003°45'0 0.0
2018-Jan-07 13:59N 51°05' E 003°45'0 0.0
2018-Jan-07 13:29N 51°05' E 003°45'0 0.0
2018-Jan-07 12:59N 51°05' E 003°45'0 0.0
2018-Jan-07 12:29N 51°05' E 003°45'0 0.0
2018-Jan-07 11:56N 51°05' E 003°45'0 0.0
2018-Jan-07 11:29N 51°05' E 003°45'0 0.0
2018-Jan-07 10:59N 51°05' E 003°45'0 0.0
2018-Jan-07 10:29N 51°05' E 003°45'0 0.0
2018-Jan-07 09:59N 51°05' E 003°45'0 0.0
2018-Jan-07 09:26N 51°05' E 003°45'0 0.0
2018-Jan-07 08:59N 51°05' E 003°45'0 0.0
2018-Jan-07 08:26N 51°05' E 003°45'0 0.0
2018-Jan-07 07:59N 51°05' E 003°45'0 0.0
2018-Jan-07 07:29N 51°05' E 003°45'0 0.0
2018-Jan-07 06:59N 51°05' E 003°45'0 0.1
2018-Jan-07 06:31N 51°05' E 003°45'2 4.3
2018-Jan-07 06:01N 51°08' E 003°46'4 7.2
2018-Jan-07 05:30N 51°11' E 003°48'4 8.6
2018-Jan-07 05:00N 51°15' E 003°49'3 6.8
2018-Jan-07 04:30N 51°18' E 003°50'2 3.4
2018-Jan-07 04:00N 51°20' E 003°49'1 2.4
2018-Jan-07 03:30N 51°21' E 003°48'4 8.4
2018-Jan-07 03:00N 51°23' E 003°42'4 8.5
2018-Jan-07 02:30N 51°26' E 003°36'4 8.4
2018-Jan-07 01:59N 51°28' E 003°31'20 0.8
2018-Jan-06 02:05N 51°47' E 003°21'0 0.3
2018-Jan-06 01:59N 51°47' E 003°21'0 0.1
2018-Jan-06 01:17N 51°47' E 003°21'0 0.1
2018-Jan-06 00:56N 51°47' E 003°21'0 0.0
2018-Jan-06 00:29N 51°47' E 003°21'0 0.0
2018-Jan-05 23:56N 51°47' E 003°21'0 0.0
2018-Jan-05 23:29N 51°47' E 003°21'0 0.0
2018-Jan-05 13:35N 51°47' E 003°21'0 0.2
2018-Jan-05 13:29N 51°47' E 003°21'0 0.1
2018-Jan-05 12:59N 51°47' E 003°21'0 0.1
2018-Jan-05 12:29N 51°47' E 003°21'0 0.0
2018-Jan-05 11:59N 51°47' E 003°21'0 0.0
2018-Jan-05 11:29N 51°47' E 003°21'0 0.0
2018-Jan-05 10:59N 51°47' E 003°21'0 0.3
2018-Jan-05 10:30N 51°47' E 003°21'116 6.4
2018-Jan-04 16:28N 53°31' E 004°48'5 9.9
2018-Jan-04 16:00N 53°32' E 004°55'510.5
2018-Jan-04 15:30N 53°34' E 005°04'99 8.6
2018-Jan-04 03:59N 54°02' E 007°45'4 8.8
2018-Jan-04 03:29N 54°01' E 007°52'4 8.5
2018-Jan-04 03:00N 54°01' E 007°59'4 8.5
2018-Jan-04 02:30N 54°01' E 008°06'4 7.9
2018-Jan-04 02:00N 54°01' E 008°13'4 7.7
2018-Jan-04 01:30N 53°60' E 008°19'4 8.9
2018-Jan-04 01:00N 53°59' E 008°27'4 8.0
2018-Jan-04 00:30N 53°58' E 008°33'4 8.2
2018-Jan-04 00:00N 53°56' E 008°39'4 8.4
2018-Jan-03 23:30N 53°53' E 008°43'4 7.6
2018-Jan-03 23:00N 53°51' E 008°48'4 7.8
2018-Jan-03 22:31N 53°51' E 008°55'4 7.4
2018-Jan-03 22:00N 53°52' E 009°01'4 8.6
2018-Jan-03 21:30N 53°53' E 009°08'1 1.6
2018-Jan-03 21:01N 53°54' E 009°09'3 6.2
2018-Jan-03 20:30N 53°56' E 009°13'4 8.4
2018-Jan-03 20:00N 53°59' E 009°17'4 7.2
2018-Jan-03 19:29N 54°03' E 009°18'5 5.9
2018-Jan-03 18:41N 54°07' E 009°20'2 8.2
2018-Jan-03 18:30N 54°09' E 009°21'4 8.4
2018-Jan-03 18:00N 54°11' E 009°27'4 8.6
2018-Jan-03 17:30N 54°12' E 009°34'4 7.5
2018-Jan-03 17:00N 54°16' E 009°37'4 7.4
2018-Jan-03 16:30N 54°18' E 009°42'4 7.9
2018-Jan-03 16:00N 54°21' E 009°46'31 6.5
2018-Jan-03 11:11N 54°34' E 010°35'210.3
2018-Jan-03 11:00N 54°35' E 010°38'510.4
2018-Jan-03 10:30N 54°35' E 010°47'510.3
2018-Jan-03 10:00N 54°36' E 010°56'611.4
2018-Jan-03 09:30N 54°36' E 011°06'611.2
2018-Jan-03 09:00N 54°35' E 011°16'611.2
2018-Jan-03 08:31N 54°33' E 011°24'611.5
2018-Jan-03 08:00N 54°31' E 011°33'611.4
2018-Jan-03 07:27N 54°28' E 011°43'510.9
2018-Jan-03 07:00N 54°27' E 011°51'611.3
2018-Jan-03 06:30N 54°27' E 012°01'8010.8
2018-Jan-02 23:05N 55°04' E 014°04'310.8
2018-Jan-02 22:49N 55°06' E 014°07'511.3
2018-Jan-02 22:24N 55°10' E 014°13'511.5
2018-Jan-02 21:59N 55°14' E 014°18'611.3
2018-Jan-02 21:30N 55°18' E 014°24'611.3
2018-Jan-02 20:58N 55°23' E 014°30'511.1
2018-Jan-02 20:29N 55°27' E 014°37'610.9
2018-Jan-02 19:59N 55°29' E 014°45'611.2
2018-Jan-02 19:25N 55°33' E 014°55'711.3
2018-Jan-02 18:47N 55°36' E 015°06'311.3
2018-Jan-02 18:30N 55°38' E 015°11'611.3
2018-Jan-02 18:00N 55°41' E 015°19'611.2
2018-Jan-02 17:30N 55°44' E 015°28'611.2
2018-Jan-02 17:00N 55°46' E 015°36'611.1
2018-Jan-02 16:30N 55°49' E 015°44'611.1
2018-Jan-02 16:00N 55°52' E 015°53'511.0
2018-Jan-02 15:30N 55°55' E 016°02'611.1
2018-Jan-02 15:00N 55°58' E 016°10'  
Track history (hours):
 
Tides and Currents Weather Stations Pressure Air Temp Water Temp Dewpoint Dewpoint Depression Visibility Wind Speed Wind Dir Waves Ship Positions

Karmel

Last reported at 2018-Jan-12 15:00 UTC. Time now 2018-Jan-18 02:21 UTC.
Position N 58°14' E 006°11'.

Length 90 m; draft 4.2 m.

Type: Ship. MMSI: 256632000.

Date/timePositionNaut miles runAvg speedWind from/ knotsBaromVisibWave heightAir tempDewpointWater temp
2018-Jan-12 15:00N 58°14' E 006°11'4 8.8
2018-Jan-12 14:30N 58°17' E 006°04'4 8.6
2018-Jan-12 14:00N 58°20' E 005°58'5 9.0
2018-Jan-12 13:30N 58°23' E 005°51'5 8.9
2018-Jan-12 12:59N 58°26' E 005°45'4 9.1
2018-Jan-12 12:30N 58°29' E 005°39'4 8.7
2018-Jan-12 12:00N 58°33' E 005°34'4 8.6
2018-Jan-12 11:30N 58°36' E 005°30'4 8.7
2018-Jan-12 11:00N 58°40' E 005°26'4 8.8
2018-Jan-12 10:30N 58°44' E 005°22'5 9.4
2018-Jan-12 10:00N 58°48' E 005°19'5 9.7
2018-Jan-12 09:30N 58°53' E 005°18'5 9.7
2018-Jan-12 09:00N 58°58' E 005°18'5 9.9
2018-Jan-12 08:30N 59°03' E 005°19'510.3
2018-Jan-12 08:00N 59°08' E 005°20'611.1
2018-Jan-12 07:30N 59°14' E 005°21'510.8
2018-Jan-12 07:00N 59°19' E 005°20'611.1
2018-Jan-12 06:30N 59°24' E 005°15'1 1.6
2018-Jan-12 05:59N 59°25' E 005°14'0 0.0
2018-Jan-12 05:29N 59°25' E 005°14'0 0.0
2018-Jan-12 04:59N 59°25' E 005°14'0 0.0
2018-Jan-12 04:29N 59°25' E 005°14'0 0.0
2018-Jan-12 03:59N 59°25' E 005°14'0 0.0
2018-Jan-12 03:29N 59°25' E 005°14'0 0.0
2018-Jan-12 02:59N 59°25' E 005°14'0 0.0
2018-Jan-12 02:29N 59°25' E 005°14'0 0.0
2018-Jan-12 01:59N 59°25' E 005°14'0 0.0
2018-Jan-12 01:29N 59°25' E 005°14'0 0.0
2018-Jan-12 00:59N 59°25' E 005°14'0 0.0
2018-Jan-12 00:29N 59°25' E 005°14'0 0.0
2018-Jan-11 23:59N 59°25' E 005°14'0 0.0
2018-Jan-11 23:29N 59°25' E 005°14'0 0.0
2018-Jan-11 22:59N 59°25' E 005°14'0 0.0
2018-Jan-11 22:29N 59°25' E 005°14'0 0.0
2018-Jan-11 21:59N 59°25' E 005°14'0 0.0
2018-Jan-11 21:29N 59°25' E 005°14'0 0.0
2018-Jan-11 20:59N 59°25' E 005°14'0 0.0
2018-Jan-11 20:29N 59°25' E 005°14'0 0.0
2018-Jan-11 19:59N 59°25' E 005°14'0 0.0
2018-Jan-11 19:29N 59°25' E 005°14'0 0.0
2018-Jan-11 18:59N 59°25' E 005°14'0 0.0
2018-Jan-11 18:29N 59°25' E 005°14'0 0.0
2018-Jan-11 17:59N 59°25' E 005°14'0 0.0
2018-Jan-11 17:29N 59°25' E 005°14'0 0.0
2018-Jan-11 16:59N 59°25' E 005°14'0 0.0
2018-Jan-11 16:29N 59°25' E 005°14'0 0.0
2018-Jan-11 15:59N 59°25' E 005°14'0 0.0
2018-Jan-11 15:29N 59°25' E 005°14'0 0.0
2018-Jan-11 14:59N 59°25' E 005°14'0 0.0
2018-Jan-11 14:29N 59°25' E 005°14'0 0.0
2018-Jan-11 13:56N 59°25' E 005°14'0 0.0
2018-Jan-11 13:29N 59°25' E 005°14'0 0.0
2018-Jan-11 12:59N 59°25' E 005°14'0 0.0
2018-Jan-11 12:30N 59°25' E 005°14'3 6.6
2018-Jan-11 12:00N 59°22' E 005°18'611.8
2018-Jan-11 11:30N 59°16' E 005°20'611.5
2018-Jan-11 11:01N 59°11' E 005°22'510.1
2018-Jan-11 10:30N 59°06' E 005°26'510.6
2018-Jan-11 10:00N 59°01' E 005°20'612.2
2018-Jan-11 09:31N 58°56' E 005°19'713.0
2018-Jan-11 09:01N 58°49' E 005°15'713.0
2018-Jan-11 08:30N 58°43' E 005°11'612.5
2018-Jan-11 08:01N 58°37' E 005°08'41511.1
2018-Jan-09 18:47N 51°47' E 003°18'511.9
2018-Jan-09 18:24N 51°42' E 003°18'510.7
2018-Jan-09 17:57N 51°38' E 003°21'510.9
2018-Jan-09 17:30N 51°34' E 003°25'5 9.9
2018-Jan-09 17:00N 51°29' E 003°29'4 9.1
2018-Jan-09 16:30N 51°26' E 003°34'4 8.2
2018-Jan-09 16:00N 51°25' E 003°40'510.2
2018-Jan-09 15:30N 51°21' E 003°47'2 4.6
2018-Jan-09 15:00N 51°20' E 003°49'0 0.9
2018-Jan-09 14:31N 51°19' E 003°49'0 0.3
2018-Jan-09 14:00N 51°19' E 003°50'3 5.9
2018-Jan-09 13:30N 51°16' E 003°50'4 8.8
2018-Jan-09 13:00N 51°12' E 003°48'4 9.0
2018-Jan-09 12:30N 51°08' E 003°46'2 4.8
2018-Jan-09 12:00N 51°05' E 003°45'0 0.0
2018-Jan-09 11:27N 51°05' E 003°45'0 0.0
2018-Jan-09 10:57N 51°05' E 003°45'0 0.0
2018-Jan-09 10:30N 51°05' E 003°45'0 0.0
2018-Jan-09 09:57N 51°05' E 003°45'0 0.0
2018-Jan-09 09:30N 51°05' E 003°45'0 0.0
2018-Jan-09 09:00N 51°05' E 003°45'0 0.0
2018-Jan-09 08:27N 51°05' E 003°45'0 0.0
2018-Jan-09 07:57N 51°05' E 003°45'0 0.0
2018-Jan-09 07:24N 51°05' E 003°45'0 0.0
2018-Jan-09 07:00N 51°05' E 003°45'0 0.0
2018-Jan-09 06:30N 51°05' E 003°45'0 0.0
2018-Jan-09 06:00N 51°05' E 003°45'0 0.0
2018-Jan-09 05:27N 51°05' E 003°45'0 0.0
2018-Jan-09 05:00N 51°05' E 003°45'0 0.0
2018-Jan-09 04:30N 51°05' E 003°45'0 0.0
2018-Jan-09 04:00N 51°05' E 003°45'0 0.0
2018-Jan-09 03:30N 51°05' E 003°45'0 0.0
2018-Jan-09 02:57N 51°05' E 003°45'0 0.0
2018-Jan-09 02:30N 51°05' E 003°45'0 0.0
2018-Jan-09 02:00N 51°05' E 003°45'0 0.0
2018-Jan-09 01:30N 51°05' E 003°45'0 0.0
2018-Jan-09 01:00N 51°05' E 003°45'0 0.0
2018-Jan-09 00:30N 51°05' E 003°45'0 0.0
2018-Jan-09 00:00N 51°05' E 003°45'0 0.0
2018-Jan-08 23:30N 51°05' E 003°45'0 0.0
2018-Jan-08 23:00N 51°05' E 003°45'0 0.0
2018-Jan-08 22:30N 51°05' E 003°45'0 0.0
2018-Jan-08 22:00N 51°05' E 003°45'0 0.0
2018-Jan-08 21:27N 51°05' E 003°45'0 0.0
2018-Jan-08 21:00N 51°05' E 003°45'0 0.0
2018-Jan-08 20:30N 51°05' E 003°45'0 0.0
2018-Jan-08 20:00N 51°05' E 003°45'0 0.0
2018-Jan-08 19:27N 51°05' E 003°45'0 0.0
2018-Jan-08 19:00N 51°05' E 003°45'0 0.0
2018-Jan-08 18:30N 51°05' E 003°45'0 0.0
2018-Jan-08 18:00N 51°05' E 003°45'0 0.0
2018-Jan-08 17:30N 51°05' E 003°45'0 0.0
2018-Jan-08 16:54N 51°05' E 003°45'0 0.0
2018-Jan-08 16:30N 51°05' E 003°45'0 0.0
2018-Jan-08 15:57N 51°05' E 003°45'0 0.0
2018-Jan-08 15:30N 51°05' E 003°45'0 0.0
2018-Jan-08 15:00N 51°05' E 003°45'0 0.0
2018-Jan-08 14:30N 51°05' E 003°45'0 0.0
2018-Jan-08 14:00N 51°05' E 003°45'0 0.0
2018-Jan-08 13:29N 51°05' E 003°45'0 0.0
2018-Jan-08 12:59N 51°05' E 003°45'0 0.0
2018-Jan-08 12:26N 51°05' E 003°45'0 0.0
2018-Jan-08 11:59N 51°05' E 003°45'0 0.0
2018-Jan-08 11:26N 51°05' E 003°45'0 0.0
2018-Jan-08 10:59N 51°05' E 003°45'0 0.0
2018-Jan-08 10:26N 51°05' E 003°45'0 0.0
2018-Jan-08 09:59N 51°05' E 003°45'0 0.0
2018-Jan-08 09:29N 51°05' E 003°45'0 0.0
2018-Jan-08 08:50N 51°05' E 003°45'0 0.0
2018-Jan-08 08:26N 51°05' E 003°45'0 0.0
2018-Jan-08 07:59N 51°05' E 003°45'0 0.0
2018-Jan-08 07:29N 51°05' E 003°45'0 0.0
2018-Jan-08 06:59N 51°05' E 003°45'0 0.0
2018-Jan-08 06:29N 51°05' E 003°45'0 0.0
2018-Jan-08 05:50N 51°05' E 003°45'0 0.0
2018-Jan-08 05:29N 51°05' E 003°45'0 0.0
2018-Jan-08 04:59N 51°05' E 003°45'0 0.0
2018-Jan-08 04:23N 51°05' E 003°45'0 0.0
2018-Jan-08 03:56N 51°05' E 003°45'0 0.0
2018-Jan-08 03:29N 51°05' E 003°45'0 0.0
2018-Jan-08 02:59N 51°05' E 003°45'0 0.0
2018-Jan-08 02:29N 51°05' E 003°45'0 0.0
2018-Jan-08 01:59N 51°05' E 003°45'0 0.0
2018-Jan-08 01:29N 51°05' E 003°45'0 0.0
2018-Jan-08 00:59N 51°05' E 003°45'0 0.0
2018-Jan-08 00:29N 51°05' E 003°45'0 0.0
2018-Jan-07 23:56N 51°05' E 003°45'0 0.0
2018-Jan-07 23:29N 51°05' E 003°45'0 0.0
2018-Jan-07 22:56N 51°05' E 003°45'0 0.0
2018-Jan-07 22:29N 51°05' E 003°45'0 0.0
2018-Jan-07 21:59N 51°05' E 003°45'0 0.0
2018-Jan-07 21:26N 51°05' E 003°45'0 0.0
2018-Jan-07 20:59N 51°05' E 003°45'0 0.0
2018-Jan-07 20:29N 51°05' E 003°45'0 0.0
2018-Jan-07 19:59N 51°05' E 003°45'0 0.0
2018-Jan-07 19:29N 51°05' E 003°45'0 0.0
2018-Jan-07 18:59N 51°05' E 003°45'0 0.0
2018-Jan-07 18:29N 51°05' E 003°45'0 0.0
2018-Jan-07 17:56N 51°05' E 003°45'0 0.0
2018-Jan-07 17:29N 51°05' E 003°45'0 0.0
2018-Jan-07 16:59N 51°05' E 003°45'0 0.0
2018-Jan-07 16:26N 51°05' E 003°45'0 0.0
2018-Jan-07 15:59N 51°05' E 003°45'0 0.0
2018-Jan-07 15:29N 51°05' E 003°45'0 0.0
2018-Jan-07 14:59N 51°05' E 003°45'0 0.0
2018-Jan-07 14:29N 51°05' E 003°45'0 0.0
2018-Jan-07 13:59N 51°05' E 003°45'0 0.0
2018-Jan-07 13:29N 51°05' E 003°45'0 0.0
2018-Jan-07 12:59N 51°05' E 003°45'0 0.0
2018-Jan-07 12:29N 51°05' E 003°45'0 0.0
2018-Jan-07 11:56N 51°05' E 003°45'0 0.0
2018-Jan-07 11:29N 51°05' E 003°45'0 0.0
2018-Jan-07 10:59N 51°05' E 003°45'0 0.0
2018-Jan-07 10:29N 51°05' E 003°45'0 0.0
2018-Jan-07 09:59N 51°05' E 003°45'0 0.0
2018-Jan-07 09:26N 51°05' E 003°45'0 0.0
2018-Jan-07 08:59N 51°05' E 003°45'0 0.0
2018-Jan-07 08:26N 51°05' E 003°45'0 0.0
2018-Jan-07 07:59N 51°05' E 003°45'0 0.0
2018-Jan-07 07:29N 51°05' E 003°45'0 0.0
2018-Jan-07 06:59N 51°05' E 003°45'0 0.1
2018-Jan-07 06:31N 51°05' E 003°45'2 4.3
2018-Jan-07 06:01N 51°08' E 003°46'4 7.2
2018-Jan-07 05:30N 51°11' E 003°48'4 8.6
2018-Jan-07 05:00N 51°15' E 003°49'3 6.8
2018-Jan-07 04:30N 51°18' E 003°50'2 3.4
2018-Jan-07 04:00N 51°20' E 003°49'1 2.4
2018-Jan-07 03:30N 51°21' E 003°48'4 8.4
2018-Jan-07 03:00N 51°23' E 003°42'4 8.5
2018-Jan-07 02:30N 51°26' E 003°36'4 8.4
2018-Jan-07 01:59N 51°28' E 003°31'20 0.8
2018-Jan-06 02:05N 51°47' E 003°21'0 0.3
2018-Jan-06 01:59N 51°47' E 003°21'0 0.1
2018-Jan-06 01:17N 51°47' E 003°21'0 0.1
2018-Jan-06 00:56N 51°47' E 003°21'0 0.0
2018-Jan-06 00:29N 51°47' E 003°21'0 0.0
2018-Jan-05 23:56N 51°47' E 003°21'0 0.0
2018-Jan-05 23:29N 51°47' E 003°21'0 0.0
2018-Jan-05 13:35N 51°47' E 003°21'0 0.2
2018-Jan-05 13:29N 51°47' E 003°21'0 0.1
2018-Jan-05 12:59N 51°47' E 003°21'0 0.1
2018-Jan-05 12:29N 51°47' E 003°21'0 0.0
2018-Jan-05 11:59N 51°47' E 003°21'0 0.0
2018-Jan-05 11:29N 51°47' E 003°21'0 0.0
2018-Jan-05 10:59N 51°47' E 003°21'0 0.3
2018-Jan-05 10:30N 51°47' E 003°21'116 6.4
2018-Jan-04 16:28N 53°31' E 004°48'5 9.9
2018-Jan-04 16:00N 53°32' E 004°55'510.5
2018-Jan-04 15:30N 53°34' E 005°04'99 8.6
2018-Jan-04 03:59N 54°02' E 007°45'4 8.8
2018-Jan-04 03:29N 54°01' E 007°52'4 8.5
2018-Jan-04 03:00N 54°01' E 007°59'4 8.5
2018-Jan-04 02:30N 54°01' E 008°06'4 7.9
2018-Jan-04 02:00N 54°01' E 008°13'4 7.7
2018-Jan-04 01:30N 53°60' E 008°19'4 8.9
2018-Jan-04 01:00N 53°59' E 008°27'4 8.0
2018-Jan-04 00:30N 53°58' E 008°33'4 8.2
2018-Jan-04 00:00N 53°56' E 008°39'4 8.4
2018-Jan-03 23:30N 53°53' E 008°43'4 7.6
2018-Jan-03 23:00N 53°51' E 008°48'4 7.8
2018-Jan-03 22:31N 53°51' E 008°55'4 7.4
2018-Jan-03 22:00N 53°52' E 009°01'4 8.6
2018-Jan-03 21:30N 53°53' E 009°08'1 1.6
2018-Jan-03 21:01N 53°54' E 009°09'3 6.2
2018-Jan-03 20:30N 53°56' E 009°13'4 8.4
2018-Jan-03 20:00N 53°59' E 009°17'4 7.2
2018-Jan-03 19:29N 54°03' E 009°18'5 5.9
2018-Jan-03 18:41N 54°07' E 009°20'2 8.2
2018-Jan-03 18:30N 54°09' E 009°21'4 8.4
2018-Jan-03 18:00N 54°11' E 009°27'4 8.6
2018-Jan-03 17:30N 54°12' E 009°34'4 7.5
2018-Jan-03 17:00N 54°16' E 009°37'4 7.4
2018-Jan-03 16:30N 54°18' E 009°42'4 7.9
2018-Jan-03 16:00N 54°21' E 009°46'31 6.5
2018-Jan-03 11:11N 54°34' E 010°35'210.3
2018-Jan-03 11:00N 54°35' E 010°38'510.4
2018-Jan-03 10:30N 54°35' E 010°47'510.3
2018-Jan-03 10:00N 54°36' E 010°56'611.4
2018-Jan-03 09:30N 54°36' E 011°06'611.2
2018-Jan-03 09:00N 54°35' E 011°16'611.2
2018-Jan-03 08:31N 54°33' E 011°24'611.5
2018-Jan-03 08:00N 54°31' E 011°33'611.4
2018-Jan-03 07:27N 54°28' E 011°43'510.9
2018-Jan-03 07:00N 54°27' E 011°51'611.3
2018-Jan-03 06:30N 54°27' E 012°01'8010.8
2018-Jan-02 23:05N 55°04' E 014°04'310.8
2018-Jan-02 22:49N 55°06' E 014°07'511.3
2018-Jan-02 22:24N 55°10' E 014°13'511.5
2018-Jan-02 21:59N 55°14' E 014°18'611.3
2018-Jan-02 21:30N 55°18' E 014°24'611.3
2018-Jan-02 20:58N 55°23' E 014°30'511.1
2018-Jan-02 20:29N 55°27' E 014°37'610.9
2018-Jan-02 19:59N 55°29' E 014°45'611.2
2018-Jan-02 19:25N 55°33' E 014°55'711.3
2018-Jan-02 18:47N 55°36' E 015°06'311.3
2018-Jan-02 18:30N 55°38' E 015°11'611.3
2018-Jan-02 18:00N 55°41' E 015°19'611.2
2018-Jan-02 17:30N 55°44' E 015°28'611.2
2018-Jan-02 17:00N 55°46' E 015°36'611.1
2018-Jan-02 16:30N 55°49' E 015°44'611.1
2018-Jan-02 16:00N 55°52' E 015°53'511.0
2018-Jan-02 15:30N 55°55' E 016°02'611.1
2018-Jan-02 15:00N 55°58' E 016°10'  

Dump ship's entire track history